sensor_id;sensor_type;location;lat;lon;timestamp;temperature;humidity
42135;DHT22;28312;43.460;11.810;2023-12-20T00:01:19;0.20;56.00
42135;DHT22;28312;43.460;11.810;2023-12-20T00:05:23;0.30;56.00
42135;DHT22;28312;43.460;11.810;2023-12-20T00:09:27;0.20;55.90
42135;DHT22;28312;43.460;11.810;2023-12-20T00:13:31;0.30;56.10
42135;DHT22;28312;43.460;11.810;2023-12-20T00:17:34;0.30;56.20
42135;DHT22;28312;43.460;11.810;2023-12-20T00:21:39;0.30;56.20
42135;DHT22;28312;43.460;11.810;2023-12-20T00:25:43;0.20;56.20
42135;DHT22;28312;43.460;11.810;2023-12-20T00:29:46;0.20;56.30
42135;DHT22;28312;43.460;11.810;2023-12-20T00:33:52;0.20;56.20
42135;DHT22;28312;43.460;11.810;2023-12-20T00:37:57;0.20;56.20
42135;DHT22;28312;43.460;11.810;2023-12-20T00:42:01;0.10;56.20
42135;DHT22;28312;43.460;11.810;2023-12-20T00:46:05;0.10;56.30
42135;DHT22;28312;43.460;11.810;2023-12-20T00:50:09;0.00;56.40
42135;DHT22;28312;43.460;11.810;2023-12-20T00:54:13;0.00;56.40
42135;DHT22;28312;43.460;11.810;2023-12-20T00:58:16;0.00;56.30
42135;DHT22;28312;43.460;11.810;2023-12-20T01:02:20;0.00;56.40
42135;DHT22;28312;43.460;11.810;2023-12-20T01:06:24;0.00;56.40
42135;DHT22;28312;43.460;11.810;2023-12-20T01:10:27;0.00;56.50
42135;DHT22;28312;43.460;11.810;2023-12-20T01:14:32;0.00;56.40
42135;DHT22;28312;43.460;11.810;2023-12-20T01:18:36;0.00;56.40
42135;DHT22;28312;43.460;11.810;2023-12-20T01:22:41;0.00;56.50
42135;DHT22;28312;43.460;11.810;2023-12-20T01:26:46;0.00;56.50
42135;DHT22;28312;43.460;11.810;2023-12-20T01:30:49;-3276.70;56.50
42135;DHT22;28312;43.460;11.810;2023-12-20T01:34:53;-3276.70;56.50
42135;DHT22;28312;43.460;11.810;2023-12-20T01:39:00;-3276.70;56.40
42135;DHT22;28312;43.460;11.810;2023-12-20T01:43:09;-3276.60;56.50
42135;DHT22;28312;43.460;11.810;2023-12-20T01:47:13;-3276.60;56.60
42135;DHT22;28312;43.460;11.810;2023-12-20T01:51:17;-3276.50;56.60
42135;DHT22;28312;43.460;11.810;2023-12-20T01:55:22;-3276.40;56.70
42135;DHT22;28312;43.460;11.810;2023-12-20T01:59:26;-3276.40;56.80
42135;DHT22;28312;43.460;11.810;2023-12-20T02:03:35;-3276.40;56.80
42135;DHT22;28312;43.460;11.810;2023-12-20T02:07:40;-3276.40;56.80
42135;DHT22;28312;43.460;11.810;2023-12-20T02:11:43;-3276.40;56.90
42135;DHT22;28312;43.460;11.810;2023-12-20T02:15:47;-3276.30;56.90
42135;DHT22;28312;43.460;11.810;2023-12-20T02:19:51;-3276.40;56.80
42135;DHT22;28312;43.460;11.810;2023-12-20T02:23:55;-3276.40;56.90
42135;DHT22;28312;43.460;11.810;2023-12-20T02:27:58;-3276.40;56.90
42135;DHT22;28312;43.460;11.810;2023-12-20T02:32:03;-3276.40;56.90
42135;DHT22;28312;43.460;11.810;2023-12-20T02:36:07;-3276.40;56.90
42135;DHT22;28312;43.460;11.810;2023-12-20T02:40:11;-3276.40;56.80
42135;DHT22;28312;43.460;11.810;2023-12-20T02:44:15;-3276.30;56.90
42135;DHT22;28312;43.460;11.810;2023-12-20T02:48:18;-3276.20;56.90
42135;DHT22;28312;43.460;11.810;2023-12-20T02:52:23;-3276.20;57.00
42135;DHT22;28312;43.460;11.810;2023-12-20T02:56:27;-3276.20;57.10
42135;DHT22;28312;43.460;11.810;2023-12-20T03:00:31;-3276.20;57.10
42135;DHT22;28312;43.460;11.810;2023-12-20T03:04:34;-3276.20;57.10
42135;DHT22;28312;43.460;11.810;2023-12-20T03:08:38;-3276.20;57.20
42135;DHT22;28312;43.460;11.810;2023-12-20T03:12:42;-3276.10;57.30
42135;DHT22;28312;43.460;11.810;2023-12-20T03:16:49;-3276.10;57.30
42135;DHT22;28312;43.460;11.810;2023-12-20T03:20:54;-3276.10;57.30
42135;DHT22;28312;43.460;11.810;2023-12-20T03:24:57;-3276.10;57.40
42135;DHT22;28312;43.460;11.810;2023-12-20T03:29:01;-3276.10;57.40
42135;DHT22;28312;43.460;11.810;2023-12-20T03:33:04;-3276.00;57.30
42135;DHT22;28312;43.460;11.810;2023-12-20T03:37:08;-3276.10;57.30
42135;DHT22;28312;43.460;11.810;2023-12-20T03:41:12;-3276.00;57.30
42135;DHT22;28312;43.460;11.810;2023-12-20T03:45:15;-3276.00;57.30
42135;DHT22;28312;43.460;11.810;2023-12-20T03:49:20;-3275.90;57.40
42135;DHT22;28312;43.460;11.810;2023-12-20T03:53:24;-3275.90;57.40
42135;DHT22;28312;43.460;11.810;2023-12-20T03:57:27;-3275.90;57.30
42135;DHT22;28312;43.460;11.810;2023-12-20T04:01:31;-3275.90;57.30
42135;DHT22;28312;43.460;11.810;2023-12-20T04:05:34;-3275.80;57.30
42135;DHT22;28312;43.460;11.810;2023-12-20T04:09:40;-3275.70;57.40
42135;DHT22;28312;43.460;11.810;2023-12-20T04:13:43;-3275.70;57.40
42135;DHT22;28312;43.460;11.810;2023-12-20T04:17:47;-3275.80;57.50
42135;DHT22;28312;43.460;11.810;2023-12-20T04:21:51;-3275.90;57.90
42135;DHT22;28312;43.460;11.810;2023-12-20T04:25:55;-3275.90;57.90
42135;DHT22;28312;43.460;11.810;2023-12-20T04:29:59;-3275.90;57.90
42135;DHT22;28312;43.460;11.810;2023-12-20T04:34:08;-3276.00;57.80
42135;DHT22;28312;43.460;11.810;2023-12-20T04:38:11;-3275.90;57.70
42135;DHT22;28312;43.460;11.810;2023-12-20T04:42:15;-3275.80;57.70
42135;DHT22;28312;43.460;11.810;2023-12-20T04:46:19;-3275.80;57.70
42135;DHT22;28312;43.460;11.810;2023-12-20T04:50:22;-3275.80;57.70
42135;DHT22;28312;43.460;11.810;2023-12-20T04:54:26;-3275.70;57.70
42135;DHT22;28312;43.460;11.810;2023-12-20T04:58:30;-3275.60;57.90
42135;DHT22;28312;43.460;11.810;2023-12-20T05:02:37;-3275.60;57.90
42135;DHT22;28312;43.460;11.810;2023-12-20T05:06:41;-3275.60;57.90
42135;DHT22;28312;43.460;11.810;2023-12-20T05:10:44;-3275.60;57.90
42135;DHT22;28312;43.460;11.810;2023-12-20T05:14:48;-3275.50;57.90
42135;DHT22;28312;43.460;11.810;2023-12-20T05:18:53;-3275.40;58.00
42135;DHT22;28312;43.460;11.810;2023-12-20T05:22:57;-3275.50;58.00
42135;DHT22;28312;43.460;11.810;2023-12-20T05:27:01;-3275.50;57.90
42135;DHT22;28312;43.460;11.810;2023-12-20T05:31:04;-3275.50;57.90
42135;DHT22;28312;43.460;11.810;2023-12-20T05:35:09;-3275.50;58.10
42135;DHT22;28312;43.460;11.810;2023-12-20T05:39:13;-3275.50;58.20
42135;DHT22;28312;43.460;11.810;2023-12-20T05:43:17;-3275.60;58.30
42135;DHT22;28312;43.460;11.810;2023-12-20T05:47:20;-3275.60;58.40
42135;DHT22;28312;43.460;11.810;2023-12-20T05:51:25;-3275.70;58.40
42135;DHT22;28312;43.460;11.810;2023-12-20T05:55:29;-3275.70;58.40
42135;DHT22;28312;43.460;11.810;2023-12-20T05:59:32;-3275.80;58.40
42135;DHT22;28312;43.460;11.810;2023-12-20T06:03:36;-3275.70;58.30
42135;DHT22;28312;43.460;11.810;2023-12-20T06:07:39;-3275.70;58.20
42135;DHT22;28312;43.460;11.810;2023-12-20T06:11:43;-3275.60;58.30
42135;DHT22;28312;43.460;11.810;2023-12-20T06:15:46;-3275.50;58.40
42135;DHT22;28312;43.460;11.810;2023-12-20T06:19:50;-3275.40;58.40
42135;DHT22;28312;43.460;11.810;2023-12-20T06:23:54;-3275.40;58.40
42135;DHT22;28312;43.460;11.810;2023-12-20T06:27:58;-3275.30;58.40
42135;DHT22;28312;43.460;11.810;2023-12-20T06:32:01;-3275.20;58.50
42135;DHT22;28312;43.460;11.810;2023-12-20T06:36:05;-3275.20;58.50
42135;DHT22;28312;43.460;11.810;2023-12-20T06:40:10;-3275.20;58.40
42135;DHT22;28312;43.460;11.810;2023-12-20T06:44:20;-3275.20;58.30
42135;DHT22;28312;43.460;11.810;2023-12-20T06:48:24;-3275.20;58.30
42135;DHT22;28312;43.460;11.810;2023-12-20T06:52:28;-3275.20;58.40
42135;DHT22;28312;43.460;11.810;2023-12-20T06:56:32;-3275.10;58.50
42135;DHT22;28312;43.460;11.810;2023-12-20T07:00:36;-3275.10;58.60
42135;DHT22;28312;43.460;11.810;2023-12-20T07:04:42;-3275.10;58.70
42135;DHT22;28312;43.460;11.810;2023-12-20T07:08:46;-3275.10;58.70
42135;DHT22;28312;43.460;11.810;2023-12-20T07:12:50;-3275.10;58.80
42135;DHT22;28312;43.460;11.810;2023-12-20T07:16:54;-3275.20;58.90
42135;DHT22;28312;43.460;11.810;2023-12-20T07:20:57;-3275.20;59.00
42135;DHT22;28312;43.460;11.810;2023-12-20T07:25:01;-3275.20;59.10
42135;DHT22;28312;43.460;11.810;2023-12-20T07:29:05;-3275.30;59.20
42135;DHT22;28312;43.460;11.810;2023-12-20T07:33:10;-3275.40;59.30
42135;DHT22;28312;43.460;11.810;2023-12-20T07:37:15;-3275.50;59.30
42135;DHT22;28312;43.460;11.810;2023-12-20T07:41:19;-3275.70;59.40
42135;DHT22;28312;43.460;11.810;2023-12-20T07:45:24;-3275.80;59.50
42135;DHT22;28312;43.460;11.810;2023-12-20T07:49:28;-3275.90;59.60
42135;DHT22;28312;43.460;11.810;2023-12-20T07:53:31;-3276.10;59.80
42135;DHT22;28312;43.460;11.810;2023-12-20T07:57:35;-3276.60;61.80
42135;DHT22;28312;43.460;11.810;2023-12-20T08:01:39;1.00;62.80
42135;DHT22;28312;43.460;11.810;2023-12-20T08:05:46;2.30;62.00
42135;DHT22;28312;43.460;11.810;2023-12-20T08:09:50;3.20;61.20
42135;DHT22;28312;43.460;11.810;2023-12-20T08:13:55;4.00;60.80
42135;DHT22;28312;43.460;11.810;2023-12-20T08:17:58;4.70;60.70
42135;DHT22;28312;43.460;11.810;2023-12-20T08:22:02;5.40;60.40
42135;DHT22;28312;43.460;11.810;2023-12-20T08:26:06;6.10;59.90
42135;DHT22;28312;43.460;11.810;2023-12-20T08:30:11;6.70;59.40
42135;DHT22;28312;43.460;11.810;2023-12-20T08:34:14;6.90;58.80
42135;DHT22;28312;43.460;11.810;2023-12-20T08:38:19;7.10;58.70
42135;DHT22;28312;43.460;11.810;2023-12-20T08:42:25;7.30;58.70
42135;DHT22;28312;43.460;11.810;2023-12-20T08:46:34;7.70;58.40
42135;DHT22;28312;43.460;11.810;2023-12-20T08:50:38;7.80;58.20
42135;DHT22;28312;43.460;11.810;2023-12-20T08:54:42;8.20;58.10
42135;DHT22;28312;43.460;11.810;2023-12-20T08:58:47;8.20;57.60
42135;DHT22;28312;43.460;11.810;2023-12-20T09:02:51;8.10;57.20
42135;DHT22;28312;43.460;11.810;2023-12-20T09:06:59;7.80;57.40
42135;DHT22;28312;43.460;11.810;2023-12-20T09:11:03;7.50;57.90
42135;DHT22;28312;43.460;11.810;2023-12-20T09:15:07;7.40;58.50
42135;DHT22;28312;43.460;11.810;2023-12-20T09:19:11;8.00;59.20
42135;DHT22;28312;43.460;11.810;2023-12-20T09:23:15;8.80;58.60
42135;DHT22;28312;43.460;11.810;2023-12-20T09:27:20;9.30;57.90
42135;DHT22;28312;43.460;11.810;2023-12-20T09:31:23;9.60;57.20
42135;DHT22;28312;43.460;11.810;2023-12-20T09:35:28;9.60;57.40
42135;DHT22;28312;43.460;11.810;2023-12-20T09:39:32;9.90;58.00
42135;DHT22;28312;43.460;11.810;2023-12-20T09:43:37;10.80;57.50
42135;DHT22;28312;43.460;11.810;2023-12-20T09:47:43;11.50;56.70
42135;DHT22;28312;43.460;11.810;2023-12-20T09:51:50;11.90;56.50
42135;DHT22;28312;43.460;11.810;2023-12-20T09:55:58;12.40;56.60
42135;DHT22;28312;43.460;11.810;2023-12-20T10:00:04;13.50;56.90
42135;DHT22;28312;43.460;11.810;2023-12-20T10:04:13;14.60;55.70
42135;DHT22;28312;43.460;11.810;2023-12-20T10:08:32;15.20;54.00
42135;DHT22;28312;43.460;11.810;2023-12-20T10:12:36;14.90;53.80
42135;DHT22;28312;43.460;11.810;2023-12-20T10:16:41;15.00;54.40
42135;DHT22;28312;43.460;11.810;2023-12-20T10:20:45;15.40;54.40
42135;DHT22;28312;43.460;11.810;2023-12-20T10:24:49;15.70;53.90
42135;DHT22;28312;43.460;11.810;2023-12-20T10:28:59;15.60;53.50
42135;DHT22;28312;43.460;11.810;2023-12-20T10:33:05;15.50;53.80
42135;DHT22;28312;43.460;11.810;2023-12-20T10:37:09;15.40;53.80
42135;DHT22;28312;43.460;11.810;2023-12-20T10:41:14;15.20;53.20
42135;DHT22;28312;43.460;11.810;2023-12-20T10:45:20;14.70;53.00
42135;DHT22;28312;43.460;11.810;2023-12-20T10:49:24;13.90;52.90
42135;DHT22;28312;43.460;11.810;2023-12-20T10:53:29;13.30;53.30
42135;DHT22;28312;43.460;11.810;2023-12-20T10:57:36;12.90;53.50
42135;DHT22;28312;43.460;11.810;2023-12-20T11:01:40;12.40;53.50
42135;DHT22;28312;43.460;11.810;2023-12-20T11:06:29;11.80;54.00
42135;DHT22;28312;43.460;11.810;2023-12-20T11:15:07;11.00;54.50
42135;DHT22;28312;43.460;11.810;2023-12-20T11:24:06;11.80;57.70
42135;DHT22;28312;43.460;11.810;2023-12-20T11:28:38;13.20;57.10
42135;DHT22;28312;43.460;11.810;2023-12-20T11:32:46;14.50;56.10
42135;DHT22;28312;43.460;11.810;2023-12-20T11:37:00;15.40;56.20
42135;DHT22;28312;43.460;11.810;2023-12-20T11:41:06;16.10;55.00
42135;DHT22;28312;43.460;11.810;2023-12-20T11:45:19;16.10;54.10
42135;DHT22;28312;43.460;11.810;2023-12-20T11:49:25;15.70;53.70
42135;DHT22;28312;43.460;11.810;2023-12-20T11:53:29;15.10;53.70
42135;DHT22;28312;43.460;11.810;2023-12-20T11:57:36;14.50;54.10
42135;DHT22;28312;43.460;11.810;2023-12-20T12:01:47;14.20;55.60
42135;DHT22;28312;43.460;11.810;2023-12-20T12:05:51;14.40;56.20
42135;DHT22;28312;43.460;11.810;2023-12-20T12:09:55;15.00;56.10
42135;DHT22;28312;43.460;11.810;2023-12-20T12:13:59;15.30;55.40
42135;DHT22;28312;43.460;11.810;2023-12-20T12:18:02;15.30;54.50
42135;DHT22;28312;43.460;11.810;2023-12-20T12:22:14;15.00;53.80
42135;DHT22;28312;43.460;11.810;2023-12-20T12:26:20;14.50;54.20
42135;DHT22;28312;43.460;11.810;2023-12-20T12:30:24;14.20;54.50
42135;DHT22;28312;43.460;11.810;2023-12-20T12:34:30;13.90;55.20
42135;DHT22;28312;43.460;11.810;2023-12-20T12:38:36;14.00;56.10
42135;DHT22;28312;43.460;11.810;2023-12-20T12:42:43;14.20;56.50
42135;DHT22;28312;43.460;11.810;2023-12-20T12:46:48;14.50;55.90
42135;DHT22;28312;43.460;11.810;2023-12-20T12:50:54;14.60;55.80
42135;DHT22;28312;43.460;11.810;2023-12-20T12:55:02;14.60;55.30
42135;DHT22;28312;43.460;11.810;2023-12-20T12:59:08;14.40;54.70
42135;DHT22;28312;43.460;11.810;2023-12-20T13:03:12;14.00;54.40
42135;DHT22;28312;43.460;11.810;2023-12-20T13:07:16;13.60;54.50
42135;DHT22;28312;43.460;11.810;2023-12-20T13:11:19;13.20;54.50
42135;DHT22;28312;43.460;11.810;2023-12-20T13:15:23;12.90;54.70
42135;DHT22;28312;43.460;11.810;2023-12-20T13:19:27;12.70;54.90
42135;DHT22;28312;43.460;11.810;2023-12-20T13:23:32;12.50;55.10
42135;DHT22;28312;43.460;11.810;2023-12-20T13:27:40;12.40;55.10
42135;DHT22;28312;43.460;11.810;2023-12-20T13:31:45;12.30;55.00
42135;DHT22;28312;43.460;11.810;2023-12-20T13:35:50;12.20;55.10
42135;DHT22;28312;43.460;11.810;2023-12-20T13:39:54;12.10;55.30
42135;DHT22;28312;43.460;11.810;2023-12-20T13:43:58;12.00;55.20
42135;DHT22;28312;43.460;11.810;2023-12-20T13:48:02;11.90;55.20
42135;DHT22;28312;43.460;11.810;2023-12-20T13:52:06;11.80;55.20
42135;DHT22;28312;43.460;11.810;2023-12-20T13:56:09;11.70;55.30
42135;DHT22;28312;43.460;11.810;2023-12-20T14:00:13;11.70;55.40
42135;DHT22;28312;43.460;11.810;2023-12-20T14:04:18;11.70;55.30
42135;DHT22;28312;43.460;11.810;2023-12-20T14:08:41;11.60;55.20
42135;DHT22;28312;43.460;11.810;2023-12-20T14:12:45;11.60;55.20
42135;DHT22;28312;43.460;11.810;2023-12-20T14:16:49;11.50;55.20
42135;DHT22;28312;43.460;11.810;2023-12-20T14:20:53;11.50;55.20
42135;DHT22;28312;43.460;11.810;2023-12-20T14:24:57;11.30;55.30
42135;DHT22;28312;43.460;11.810;2023-12-20T14:29:01;11.30;55.30
42135;DHT22;28312;43.460;11.810;2023-12-20T14:33:05;11.20;55.50
42135;DHT22;28312;43.460;11.810;2023-12-20T14:37:09;11.20;55.50
42135;DHT22;28312;43.460;11.810;2023-12-20T14:41:12;11.20;55.30
42135;DHT22;28312;43.460;11.810;2023-12-20T14:45:16;11.20;55.30
42135;DHT22;28312;43.460;11.810;2023-12-20T14:49:20;11.20;55.30
42135;DHT22;28312;43.460;11.810;2023-12-20T14:53:23;11.10;55.10
42135;DHT22;28312;43.460;11.810;2023-12-20T14:57:29;11.00;55.10
42135;DHT22;28312;43.460;11.810;2023-12-20T15:01:33;10.90;55.20
42135;DHT22;28312;43.460;11.810;2023-12-20T15:05:37;10.70;55.10
42135;DHT22;28312;43.460;11.810;2023-12-20T15:09:41;10.60;55.20
42135;DHT22;28312;43.460;11.810;2023-12-20T15:13:49;10.50;55.20
42135;DHT22;28312;43.460;11.810;2023-12-20T15:17:58;10.40;55.20
42135;DHT22;28312;43.460;11.810;2023-12-20T15:22:01;10.30;55.20
42135;DHT22;28312;43.460;11.810;2023-12-20T15:26:07;10.20;55.30
42135;DHT22;28312;43.460;11.810;2023-12-20T15:30:11;9.90;55.50
42135;DHT22;28312;43.460;11.810;2023-12-20T15:34:15;9.90;55.50
42135;DHT22;28312;43.460;11.810;2023-12-20T15:38:24;9.70;55.60
42135;DHT22;28312;43.460;11.810;2023-12-20T15:42:27;9.40;55.80
42135;DHT22;28312;43.460;11.810;2023-12-20T15:57:10;9.30;56.10
42135;DHT22;28312;43.460;11.810;2023-12-20T16:01:14;9.30;59.30
42135;DHT22;28312;43.460;11.810;2023-12-20T16:05:19;9.20;58.70
42135;DHT22;28312;43.460;11.810;2023-12-20T16:09:23;9.00;58.70
42135;DHT22;28312;43.460;11.810;2023-12-20T16:13:26;8.70;58.60
42135;DHT22;28312;43.460;11.810;2023-12-20T16:17:30;8.60;58.60
42135;DHT22;28312;43.460;11.810;2023-12-20T16:21:35;8.40;58.60
42135;DHT22;28312;43.460;11.810;2023-12-20T16:25:38;8.00;58.80
42135;DHT22;28312;43.460;11.810;2023-12-20T16:29:42;7.80;59.10
42135;DHT22;28312;43.460;11.810;2023-12-20T16:33:47;7.80;59.00
42135;DHT22;28312;43.460;11.810;2023-12-20T16:37:50;7.60;59.00
42135;DHT22;28312;43.460;11.810;2023-12-20T16:41:54;7.40;59.40
42135;DHT22;28312;43.460;11.810;2023-12-20T16:45:58;7.40;59.50
42135;DHT22;28312;43.460;11.810;2023-12-20T16:50:03;7.40;59.30
42135;DHT22;28312;43.460;11.810;2023-12-20T16:54:09;7.40;59.10
42135;DHT22;28312;43.460;11.810;2023-12-20T16:58:13;7.40;59.00
42135;DHT22;28312;43.460;11.810;2023-12-20T17:02:17;7.30;59.10
42135;DHT22;28312;43.460;11.810;2023-12-20T17:06:20;7.20;59.10
42135;DHT22;28312;43.460;11.810;2023-12-20T17:10:24;7.10;59.50
42135;DHT22;28312;43.460;11.810;2023-12-20T17:14:29;7.00;59.60
42135;DHT22;28312;43.460;11.810;2023-12-20T17:18:32;7.10;59.60
42135;DHT22;28312;43.460;11.810;2023-12-20T17:22:36;7.20;59.40
42135;DHT22;28312;43.460;11.810;2023-12-20T17:26:41;7.10;59.30
42135;DHT22;28312;43.460;11.810;2023-12-20T17:30:44;7.10;59.20
42135;DHT22;28312;43.460;11.810;2023-12-20T17:34:49;7.00;59.50
42135;DHT22;28312;43.460;11.810;2023-12-20T17:38:53;7.00;59.50
42135;DHT22;28312;43.460;11.810;2023-12-20T17:42:57;7.00;59.50
42135;DHT22;28312;43.460;11.810;2023-12-20T17:47:00;7.00;59.60
42135;DHT22;28312;43.460;11.810;2023-12-20T17:51:04;7.00;59.60
42135;DHT22;28312;43.460;11.810;2023-12-20T17:55:08;7.00;59.60
42135;DHT22;28312;43.460;11.810;2023-12-20T17:59:12;7.00;59.50
42135;DHT22;28312;43.460;11.810;2023-12-20T18:03:15;6.90;59.60
42135;DHT22;28312;43.460;11.810;2023-12-20T18:07:19;6.80;59.80
42135;DHT22;28312;43.460;11.810;2023-12-20T18:11:23;6.80;60.00
42135;DHT22;28312;43.460;11.810;2023-12-20T18:15:26;6.80;60.00
42135;DHT22;28312;43.460;11.810;2023-12-20T18:19:30;6.70;60.00
42135;DHT22;28312;43.460;11.810;2023-12-20T18:23:34;6.70;59.90
42135;DHT22;28312;43.460;11.810;2023-12-20T18:27:38;6.60;59.90
42135;DHT22;28312;43.460;11.810;2023-12-20T18:31:42;6.60;59.90
42135;DHT22;28312;43.460;11.810;2023-12-20T18:35:48;6.50;59.80
42135;DHT22;28312;43.460;11.810;2023-12-20T18:39:53;6.30;59.90
42135;DHT22;28312;43.460;11.810;2023-12-20T18:43:57;6.20;60.20
42135;DHT22;28312;43.460;11.810;2023-12-20T18:48:02;6.20;60.40
42135;DHT22;28312;43.460;11.810;2023-12-20T18:52:06;6.20;60.50
42135;DHT22;28312;43.460;11.810;2023-12-20T18:56:10;6.20;60.60
42135;DHT22;28312;43.460;11.810;2023-12-20T19:00:14;6.20;60.60
42135;DHT22;28312;43.460;11.810;2023-12-20T19:04:18;6.30;60.70
42135;DHT22;28312;43.460;11.810;2023-12-20T19:08:21;6.40;60.80
42135;DHT22;28312;43.460;11.810;2023-12-20T19:12:25;6.50;60.80
42135;DHT22;28312;43.460;11.810;2023-12-20T19:16:29;6.60;60.80
42135;DHT22;28312;43.460;11.810;2023-12-20T19:20:32;6.70;60.90
42135;DHT22;28312;43.460;11.810;2023-12-20T19:24:36;6.70;60.90
42135;DHT22;28312;43.460;11.810;2023-12-20T19:28:40;6.80;60.90
42135;DHT22;28312;43.460;11.810;2023-12-20T19:32:47;6.80;60.90
42135;DHT22;28312;43.460;11.810;2023-12-20T19:36:51;6.80;60.90
42135;DHT22;28312;43.460;11.810;2023-12-20T19:40:54;6.90;60.80
42135;DHT22;28312;43.460;11.810;2023-12-20T19:44:58;6.90;60.70
42135;DHT22;28312;43.460;11.810;2023-12-20T19:49:02;6.80;60.60
42135;DHT22;28312;43.460;11.810;2023-12-20T19:53:11;6.70;60.70
42135;DHT22;28312;43.460;11.810;2023-12-20T19:57:15;6.70;60.70
42135;DHT22;28312;43.460;11.810;2023-12-20T20:01:20;6.60;60.70
42135;DHT22;28312;43.460;11.810;2023-12-20T20:05:25;6.50;60.70
42135;DHT22;28312;43.460;11.810;2023-12-20T20:09:28;6.50;60.70
42135;DHT22;28312;43.460;11.810;2023-12-20T20:13:32;6.30;60.80
42135;DHT22;28312;43.460;11.810;2023-12-20T20:17:36;6.30;60.80
42135;DHT22;28312;43.460;11.810;2023-12-20T20:21:41;6.30;60.80
42135;DHT22;28312;43.460;11.810;2023-12-20T20:25:45;6.30;60.60
42135;DHT22;28312;43.460;11.810;2023-12-20T20:29:50;6.30;60.50
42135;DHT22;28312;43.460;11.810;2023-12-20T20:33:53;6.30;60.40
42135;DHT22;28312;43.460;11.810;2023-12-20T20:37:57;6.20;60.40
42135;DHT22;28312;43.460;11.810;2023-12-20T20:42:01;6.10;60.50
42135;DHT22;28312;43.460;11.810;2023-12-20T20:46:05;5.90;60.50
42135;DHT22;28312;43.460;11.810;2023-12-20T20:50:09;5.60;60.70
42135;DHT22;28312;43.460;11.810;2023-12-20T20:54:14;5.40;60.80
42135;DHT22;28312;43.460;11.810;2023-12-20T20:58:20;5.20;60.80
42135;DHT22;28312;43.460;11.810;2023-12-20T21:02:24;5.20;60.70
42135;DHT22;28312;43.460;11.810;2023-12-20T21:06:29;5.00;60.50
42135;DHT22;28312;43.460;11.810;2023-12-20T21:10:33;4.90;60.70
42135;DHT22;28312;43.460;11.810;2023-12-20T21:14:36;4.80;60.70
42135;DHT22;28312;43.460;11.810;2023-12-20T21:18:40;4.70;60.90
42135;DHT22;28312;43.460;11.810;2023-12-20T21:22:44;4.70;61.00
42135;DHT22;28312;43.460;11.810;2023-12-20T21:26:48;4.60;61.10
42135;DHT22;28312;43.460;11.810;2023-12-20T21:30:52;4.40;61.20
42135;DHT22;28312;43.460;11.810;2023-12-20T21:34:56;4.40;61.30
42135;DHT22;28312;43.460;11.810;2023-12-20T21:39:00;4.20;61.40
42135;DHT22;28312;43.460;11.810;2023-12-20T21:43:03;4.20;61.50
42135;DHT22;28312;43.460;11.810;2023-12-20T21:47:07;4.20;61.40
42135;DHT22;28312;43.460;11.810;2023-12-20T21:51:10;4.00;61.40
42135;DHT22;28312;43.460;11.810;2023-12-20T21:55:15;3.90;61.50
42135;DHT22;28312;43.460;11.810;2023-12-20T21:59:19;3.80;61.70
42135;DHT22;28312;43.460;11.810;2023-12-20T22:03:25;3.80;61.80
42135;DHT22;28312;43.460;11.810;2023-12-20T22:07:29;3.80;61.90
42135;DHT22;28312;43.460;11.810;2023-12-20T22:11:32;3.80;61.90
42135;DHT22;28312;43.460;11.810;2023-12-20T22:15:38;3.80;61.80
42135;DHT22;28312;43.460;11.810;2023-12-20T22:19:42;3.80;61.90
42135;DHT22;28312;43.460;11.810;2023-12-20T22:23:47;3.80;61.80
42135;DHT22;28312;43.460;11.810;2023-12-20T22:27:51;3.80;61.70
42135;DHT22;28312;43.460;11.810;2023-12-20T22:31:58;3.80;61.80
42135;DHT22;28312;43.460;11.810;2023-12-20T22:36:02;3.70;62.00
42135;DHT22;28312;43.460;11.810;2023-12-20T22:40:06;3.70;61.70
42135;DHT22;28312;43.460;11.810;2023-12-20T22:44:10;3.70;61.40
42135;DHT22;28312;43.460;11.810;2023-12-20T22:48:14;3.60;61.40
42135;DHT22;28312;43.460;11.810;2023-12-20T22:52:20;3.50;61.40
42135;DHT22;28312;43.460;11.810;2023-12-20T22:56:25;3.40;61.30
42135;DHT22;28312;43.460;11.810;2023-12-20T23:00:33;3.20;61.30
42135;DHT22;28312;43.460;11.810;2023-12-20T23:04:39;3.20;61.10
42135;DHT22;28312;43.460;11.810;2023-12-20T23:08:44;3.00;61.20
42135;DHT22;28312;43.460;11.810;2023-12-20T23:12:49;2.90;61.20
42135;DHT22;28312;43.460;11.810;2023-12-20T23:16:53;2.80;61.10
42135;DHT22;28312;43.460;11.810;2023-12-20T23:20:56;2.60;61.30
42135;DHT22;28312;43.460;11.810;2023-12-20T23:25:02;2.50;61.40
42135;DHT22;28312;43.460;11.810;2023-12-20T23:29:07;2.40;61.50
42135;DHT22;28312;43.460;11.810;2023-12-20T23:33:12;2.30;61.50
42135;DHT22;28312;43.460;11.810;2023-12-20T23:37:15;2.20;61.40
42135;DHT22;28312;43.460;11.810;2023-12-20T23:41:19;2.10;61.50
42135;DHT22;28312;43.460;11.810;2023-12-20T23:45:23;2.00;61.60
42135;DHT22;28312;43.460;11.810;2023-12-20T23:49:28;1.90;61.80
42135;DHT22;28312;43.460;11.810;2023-12-20T23:53:32;1.90;61.70
42135;DHT22;28312;43.460;11.810;2023-12-20T23:57:35;1.80;61.60
